Terminal Aerodrome Forecast
Issued by NWS

Home | Current Version | Previous Version | Text Only | Print | Product List | Glossary On
Versions: 1 2 3 4 5 6 7 8 9 10 11 12 13 14
000
FTUS45 KGJT 261129
TAFEGE
TAF
KEGE 261129Z 2612/2712 VRB04KT P6SM VCSH FEW040 SCT090
     FM261500 VRB03KT P6SM SCT140
     FM261700 22007KT P6SM SCT150
     FM261830 22012G22KT P6SM SCT200
     FM270200 24008KT P6SM BKN200
     FM270500 16005KT P6SM BKN150
      AMD LTD TO CLD VIS AND WIND TIL 261300=

USA.gov is the U.S. government's official web portal to all federal, state and local government web resources and services.